• Join FlightAware (Why Join?)
  • Login
  • US Flag 
06:12AM EDT


 

Airport Tracker/Info


-or-


 

Live Flight TrackerFlight Track Log ✈ BJS439 ✈ 21-Apr-2013 ✈ KBED - KTEB

Flight Track Log - Related Links

Times and Time Zones

All times are in EDT time to prevent confusion due to time zone crossing. See the BJS439 flight status page for this flight to view local times or setup timezone preferences in your user account.

Time Position Orientation Groundspeed Altitude Reporting Facility
EDT Latitude Longitude Course Direction KTS MPH feet Rate Location/Type
09:35AM 42.4667 -71.3000 270° West 205 236 1,000  Level KA90
09:36AM 42.4667 -71.3333 270° West 189 217 1,500 2,160 Climbing KA90
09:37AM 42.3981 -71.4392 229° Southwest 220 253 5,900 3,180 Climbing Boston Center
09:38AM 42.3822 -71.5294 257° West 220 253 10,500 3,900 Climbing Boston Center
09:39AM 42.3661 -71.6167 256° West 250 288 13,800 2,220 Climbing Boston Center
09:41AM 42.3461 -71.7350 257° West 284 327 15,400 960 Climbing Boston Center
09:42AM 42.3219 -71.8644 256° West 299 344 16,000 300 Climbing Boston Center
09:43AM 42.2994 -71.9769 255° West 308 354 16,100  Climbing Boston Center
09:44AM 42.2769 -72.0922 255° West 313 360 16,100  Level Boston Center
09:45AM 42.2564 -72.2044 256° West 318 366 16,100  Level Boston Center
09:46AM 42.2378 -72.3167 257° West 318 366 16,100  Level Boston Center
09:47AM 42.2128 -72.4400 255° West 318 366 16,100  Level Boston Center
09:48AM 42.1897 -72.5606 256° West 318 366 16,100  Level Boston Center
09:49AM 42.1731 -72.6614 257° West 318 366 16,100  Level Boston Center
09:50AM 42.1561 -72.7733 258° West 313 360 16,100  Level Boston Center
09:51AM 42.1517 -72.8742 267° West 313 360 16,100  Level Boston Center
09:52AM 42.1447 -73.0000 266° West 313 360 16,100  Level Boston Center
09:53AM 42.1358 -73.1289 265° West 313 360 16,100  Level Boston Center
09:54AM 42.1289 -73.2322 265° West 313 360 16,100 -60 Level Boston Center
09:55AM 42.1175 -73.3608 263° West 313 360 16,000 -60 Descending Boston Center
09:56AM 42.1100 -73.4783 265° West 313 360 16,000  Level Boston Center
09:57AM 42.1006 -73.5956 264° West 313 360 16,000  Level Boston Center
09:58AM 42.0956 -73.6850 266° West 313 360 16,000  Level Boston Center
09:59AM 42.0836 -73.8247 263° West 313 360 16,000  Level Boston Center
10:00AM 42.0758 -73.9392 265° West 313 360 16,000 -300 Level Boston Center
10:01AM 42.0681 -74.0453 264° West 313 360 15,400 -1,320 Descending Boston Center
10:02AM 42.0581 -74.1653 264° West 313 360 13,400 -1,740 Descending Boston Center
10:03AM 41.9981 -74.2644 231° Southwest 319 367 12,000 -1,200 Descending Boston Center
10:04AM 41.9283 -74.3181 210° Southwest 320 368 11,100 -960 Descending Boston Center
10:05AM 41.8481 -74.3797 210° Southwest 315 362 10,100 -960 Descending Boston Center
10:06AM 41.7869 -74.4253 209° Southwest 296 341 9,200 -1,020 Descending Boston Center
10:07AM 41.7128 -74.4842 211° Southwest 291 335 8,100 -600 Descending Boston Center
10:08AM 41.6536 -74.5294 210° Southwest 286 329 8,000 -60 Descending Boston Center
10:09AM 41.5697 -74.5628 197° South 281 323 8,000  Level Boston Center
10:10AM 41.4986 -74.5742 187° South 286 329 8,000 -120 Level Boston Center
10:11AM 41.4128 -74.5908 188° South 291 335 7,800 -540 Descending Boston Center
10:11AM 41.3667 -74.6000 188° South 289 333 7,200 -540 Descending New York TRACON
10:12AM 41.3000 -74.6333 201° Southwest 279 321 7,000 -660 Descending New York TRACON
10:13AM 41.2167 -74.6500 189° South 285 328 5,900 -1,260 Descending New York TRACON
10:14AM 41.1333 -74.6333 171° South 278 320 4,500 -960 Descending New York TRACON
10:15AM 41.0667 -74.6000 159° South 269 310 4,000 -300 Descending New York TRACON
10:16AM 41.0167 -74.5833 166° South 264 304 4,000 -480 Level New York TRACON
10:17AM 40.9500 -74.5333 150° Southeast 265 305 3,200 -540 Descending New York TRACON
10:18AM 40.8833 -74.4833 150° Southeast 262 302 3,000 -120 Descending New York TRACON
10:19AM 40.8167 -74.4333 150° Southeast 251 289 3,000  Level New York TRACON
10:20AM 40.7667 -74.4000 153° Southeast 226 260 3,000 -480 Level New York TRACON
10:21AM 40.7167 -74.3667 153° Southeast 211 243 2,100 -540 Descending New York TRACON
10:22AM 40.7000 -74.3000 108° East 178 205 2,000 -120 Descending New York TRACON
10:23AM 40.7333 -74.2500 49° Northeast 180 207 1,900 -300 Descending New York TRACON
10:24AM 40.7667 -74.2000 49° Northeast 181 208 1,500 -240 Descending New York TRACON
10:25AM 40.7833 -74.1500 66° East 175 201 1,500 -300 Level New York TRACON
10:26AM 40.8167 -74.1167 37° Northeast 121 139 1,000 -600 Descending New York TRACON
10:27AM 40.8333 -74.0833 57° Northeast 114 131 400 -720 Descending New York TRACON